Time;durP1;ratioP1;P1;durP2;ratioP2;P2;SDS_P1;SDS_P2;PMS_P1;PMS_P2;Temp;Humidity;BMP_temperature;BMP_pressure;BME280_temperature;BME280_humidity;BME280_pressure;Samples;Min_cycle;Max_cycle;Signal;HPM_P1;HPM_P2
2022/07/10 00:01:41;;;;;;;2.90;2.40;;;24.60;52.20;;;;;;220204;1268;26275;-52
2022/07/10 00:06:46;;;;;;;2.80;2.30;;;24.60;52.50;;;;;;220732;1268;22554;-51
2022/07/10 00:11:50;;;;;;;4.20;2.30;;;24.60;52.20;;;;;;220332;1268;25237;-49
2022/07/10 00:16:54;;;;;;;2.70;2.20;;;24.60;52.20;;;;;;219912;1271;25240;-51
2022/07/10 00:21:58;;;;;;;4.00;2.50;;;24.50;52.20;;;;;;220305;1268;22539;-52
2022/07/10 00:27:01;;;;;;;3.20;2.40;;;24.50;52.30;;;;;;220224;1268;22640;-50
2022/07/10 00:32:06;;;;;;;3.80;2.50;;;24.50;52.20;;;;;;220257;1268;22653;-49
2022/07/10 00:37:10;;;;;;;4.50;2.30;;;24.50;52.40;;;;;;220485;1268;23905;-54
2022/07/10 00:42:25;;;;;;;3.40;2.30;;;24.50;52.60;;;;;;220267;1268;22544;-54
2022/07/10 00:47:45;;;;;;;3.30;2.30;;;24.50;52.40;;;;;;220209;1268;24332;-50
2022/07/10 00:52:52;;;;;;;3.40;2.20;;;24.50;52.40;;;;;;220364;1268;24228;-53
2022/07/10 00:57:55;;;;;;;2.70;2.00;;;24.50;52.40;;;;;;220524;1268;25299;-51
2022/07/10 01:02:59;;;;;;;3.10;2.20;;;24.50;52.40;;;;;;220634;1268;25290;-50
2022/07/10 01:08:03;;;;;;;3.60;2.00;;;24.50;52.80;;;;;;220517;1268;25440;-49
2022/07/10 01:13:07;;;;;;;2.50;2.00;;;24.40;52.80;;;;;;220461;1267;24282;-50
2022/07/10 01:18:12;;;;;;;3.10;2.30;;;24.40;52.50;;;;;;220457;1268;22528;-54
2022/07/10 01:23:22;;;;;;;3.80;2.20;;;24.40;52.50;;;;;;220369;1268;24393;-53
2022/07/10 01:28:26;;;;;;;2.50;2.00;;;24.40;52.50;;;;;;220180;1269;24464;-52
2022/07/10 01:33:30;;;;;;;3.50;2.20;;;24.40;52.60;;;;;;219949;1268;306938;-51
2022/07/10 01:38:37;;;;;;;2.40;2.00;;;24.40;52.60;;;;;;220046;1268;22626;-52
2022/07/10 01:43:43;;;;;;;2.50;1.90;;;24.40;52.70;;;;;;220189;1268;24223;-53
2022/07/10 01:48:47;;;;;;;2.40;2.00;;;24.40;52.60;;;;;;219972;1268;22554;-53
2022/07/10 01:53:51;;;;;;;4.20;1.90;;;24.40;52.60;;;;;;220116;1268;25564;-53
2022/07/10 01:58:55;;;;;;;2.70;2.10;;;24.30;52.60;;;;;;220157;1267;25243;-49
2022/07/10 02:09:21;;;;;;;2.90;2.40;;;24.30;52.70;;;;;;220392;1268;22554;-52
2022/07/10 02:14:24;;;;;;;2.40;2.00;;;24.30;52.80;;;;;;220197;1267;24218;-53
2022/07/10 02:19:28;;;;;;;3.70;1.80;;;24.30;52.70;;;;;;220228;1268;25451;-51
2022/07/10 02:24:32;;;;;;;2.60;2.00;;;24.30;52.40;;;;;;220164;1267;22531;-53
2022/07/10 02:29:37;;;;;;;3.20;1.80;;;24.30;52.80;;;;;;220092;1267;26445;-53
2022/07/10 02:34:41;;;;;;;2.80;2.10;;;24.30;52.80;;;;;;220322;1267;22528;-51
2022/07/10 02:39:45;;;;;;;2.80;2.10;;;24.30;52.80;;;;;;220085;1267;26470;-52
2022/07/10 02:44:50;;;;;;;2.70;1.80;;;24.20;52.80;;;;;;219981;1268;25828;-50
2022/07/10 02:49:53;;;;;;;2.60;1.70;;;24.20;52.80;;;;;;220374;1267;25410;-51
2022/07/10 02:54:57;;;;;;;2.70;1.70;;;24.20;53.60;;;;;;220154;1268;24220;-48
2022/07/10 03:00:01;;;;;;;2.50;1.80;;;24.20;53.20;;;;;;220249;1267;22564;-52
2022/07/10 03:05:06;;;;;;;4.20;1.60;;;24.20;52.90;;;;;;220111;1271;22530;-52
2022/07/10 03:10:10;;;;;;;3.00;1.80;;;24.20;52.90;;;;;;219965;1268;22539;-56
2022/07/10 03:15:14;;;;;;;3.30;2.10;;;24.20;52.90;;;;;;220784;1267;25244;-53
2022/07/10 03:20:17;;;;;;;3.20;2.10;;;24.20;52.90;;;;;;221044;1268;22528;-52
2022/07/10 03:25:21;;;;;;;3.00;1.80;;;24.10;52.90;;;;;;220356;1267;25253;-53
2022/07/10 03:30:26;;;;;;;2.80;2.00;;;24.10;52.90;;;;;;220231;1267;22756;-50
2022/07/10 03:35:33;;;;;;;2.60;1.90;;;24.10;52.90;;;;;;220036;1268;27167;-51
2022/07/10 03:40:36;;;;;;;3.20;2.00;;;24.10;53.00;;;;;;220043;1270;25392;-52
2022/07/10 03:45:40;;;;;;;2.40;1.70;;;24.10;53.00;;;;;;220133;1267;24173;-50
2022/07/10 03:50:44;;;;;;;2.60;1.70;;;24.10;53.40;;;;;;220262;1267;25248;-50
2022/07/10 03:55:48;;;;;;;2.60;1.80;;;24.10;53.00;;;;;;220255;1267;24214;-52
2022/07/10 04:00:51;;;;;;;2.60;1.90;;;24.10;53.00;;;;;;220083;1267;24153;-51
2022/07/10 04:05:55;;;;;;;2.70;1.80;;;24.10;53.00;;;;;;220113;1267;25248;-50
2022/07/10 04:10:58;;;;;;;2.20;1.70;;;24.10;53.00;;;;;;220064;1267;25303;-49
2022/07/10 04:16:03;;;;;;;2.40;1.80;;;24.10;53.00;;;;;;220266;1268;25299;-52
2022/07/10 04:21:08;;;;;;;3.00;2.00;;;24.10;53.00;;;;;;220228;1267;22553;-52
2022/07/10 04:26:12;;;;;;;3.30;1.70;;;24.10;53.00;;;;;;220141;1268;24261;-49
2022/07/10 04:31:16;;;;;;;1.90;1.50;;;24.10;53.00;;;;;;220214;1268;25105;-50
2022/07/10 04:36:20;;;;;;;2.80;1.80;;;24.10;53.00;;;;;;220067;1267;24265;-52
2022/07/10 04:41:26;;;;;;;2.40;1.50;;;24.10;53.00;;;;;;220058;1268;22566;-55
2022/07/10 04:46:30;;;;;;;2.20;1.50;;;24.10;53.00;;;;;;220283;1267;24253;-51
2022/07/10 04:51:34;;;;;;;2.20;1.60;;;24.00;53.30;;;;;;220270;1267;24765;-53
2022/07/10 04:56:38;;;;;;;2.60;1.60;;;24.00;52.90;;;;;;220240;1267;24207;-50
2022/07/10 05:01:44;;;;;;;2.50;1.70;;;24.00;53.30;;;;;;220363;1267;22533;-51
2022/07/10 05:06:51;;;;;;;3.00;2.00;;;24.00;52.90;;;;;;220094;1268;24279;-53
2022/07/10 05:11:54;;;;;;;2.50;1.60;;;24.00;53.30;;;;;;220052;1268;24221;-51
2022/07/10 05:16:58;;;;;;;2.30;1.60;;;24.00;52.90;;;;;;220219;1267;25247;-52
2022/07/10 05:22:03;;;;;;;2.30;1.50;;;24.00;52.60;;;;;;220497;1267;23911;-49
2022/07/10 05:27:07;;;;;;;2.80;1.80;;;24.00;52.90;;;;;;220196;1267;23035;-52
2022/07/10 05:32:11;;;;;;;4.70;1.80;;;24.00;52.80;;;;;;220253;1267;22544;-51
2022/07/10 05:37:15;;;;;;;2.40;1.60;;;24.00;52.80;;;;;;220735;1267;25216;-49
2022/07/10 05:42:18;;;;;;;2.80;1.80;;;24.00;52.70;;;;;;220812;1267;22545;-51
2022/07/10 05:47:28;;;;;;;4.70;1.80;;;24.00;52.60;;;;;;220382;1267;25249;-50
2022/07/10 05:52:34;;;;;;;3.50;1.80;;;24.00;52.50;;;;;;220494;1267;22534;-54
2022/07/10 05:57:38;;;;;;;2.80;1.80;;;24.00;52.40;;;;;;220526;1267;23177;-49
2022/07/10 06:02:45;;;;;;;2.30;1.40;;;24.00;52.30;;;;;;220493;1268;22692;-52
2022/07/10 06:07:48;;;;;;;2.70;1.60;;;24.00;52.10;;;;;;220565;1267;22487;-52
2022/07/10 06:12:52;;;;;;;2.70;1.50;;;24.00;51.90;;;;;;220588;1268;22531;-53
2022/07/10 06:17:58;;;;;;;2.80;1.70;;;24.00;51.70;;;;;;220610;1268;22534;-53
2022/07/10 06:23:02;;;;;;;4.80;1.90;;;24.00;51.80;;;;;;220566;1268;22640;-50
2022/07/10 06:28:06;;;;;;;3.60;1.50;;;24.00;51.90;;;;;;220275;1267;22697;-54
2022/07/10 06:33:10;;;;;;;3.00;1.40;;;24.00;51.80;;;;;;220733;1267;24418;-52
2022/07/10 06:38:14;;;;;;;3.50;1.50;;;24.00;51.70;;;;;;220854;1267;22537;-53
2022/07/10 06:43:17;;;;;;;3.20;1.50;;;24.10;51.80;;;;;;220274;1268;22538;-52
2022/07/10 06:48:22;;;;;;;3.10;1.70;;;24.10;51.80;;;;;;220507;1267;23232;-50
2022/07/10 06:53:30;;;;;;;2.70;1.50;;;24.10;51.60;;;;;;220238;1267;22602;-51
2022/07/10 06:58:34;;;;;;;2.60;1.50;;;24.10;51.90;;;;;;220678;1267;22622;-53
2022/07/10 07:03:39;;;;;;;4.50;1.60;;;24.10;51.50;;;;;;220602;1268;22842;-51
2022/07/10 07:08:43;;;;;;;3.00;1.80;;;24.10;51.50;;;;;;220773;1267;25231;-50
2022/07/10 07:13:50;;;;;;;4.30;1.50;;;24.10;51.40;;;;;;220698;1267;25244;-52
2022/07/10 07:18:56;;;;;;;2.70;1.40;;;24.10;51.40;;;;;;220603;1267;22970;-50
2022/07/10 07:24:05;;;;;;;2.90;1.40;;;24.10;51.40;;;;;;220637;1267;22557;-53
2022/07/10 07:29:08;;;;;;;3.40;1.50;;;24.10;51.30;;;;;;220421;1268;24303;-53
2022/07/10 07:34:12;;;;;;;3.30;1.40;;;24.10;51.00;;;;;;220848;1267;25663;-52
2022/07/10 07:39:16;;;;;;;2.50;1.40;;;24.10;51.10;;;;;;220476;1267;25234;-50
2022/07/10 07:44:20;;;;;;;3.50;1.40;;;24.10;51.20;;;;;;220520;1267;24186;-50
2022/07/10 07:49:30;;;;;;;3.60;1.30;;;24.10;51.60;;;;;;220641;1267;26463;-51
2022/07/10 07:54:33;;;;;;;5.90;1.50;;;24.10;51.10;;;;;;220445;1266;22541;-49
2022/07/10 07:59:44;;;;;;;3.20;1.50;;;24.10;51.10;;;;;;221103;1267;24354;-52
2022/07/10 08:04:50;;;;;;;2.40;1.40;;;24.10;50.90;;;;;;220468;1267;25785;-53
2022/07/10 08:10:00;;;;;;;2.90;1.40;;;24.10;50.80;;;;;;220946;1267;25412;-52
2022/07/10 08:15:09;;;;;;;3.00;1.50;;;24.10;50.70;;;;;;220802;1267;22541;-52
2022/07/10 08:20:26;;;;;;;2.90;1.30;;;24.10;50.80;;;;;;220594;1267;24454;-51
2022/07/10 08:25:32;;;;;;;3.70;1.30;;;24.10;50.60;;;;;;220269;1268;25291;-51
2022/07/10 08:30:38;;;;;;;2.10;1.20;;;24.10;50.50;;;;;;220606;1267;22617;-53
2022/07/10 08:35:42;;;;;;;2.50;1.40;;;24.10;50.80;;;;;;220855;1266;25312;-54
2022/07/10 08:40:46;;;;;;;3.30;1.40;;;24.10;51.10;;;;;;220561;1267;24329;-53
2022/07/10 08:45:53;;;;;;;6.80;1.40;;;24.10;50.80;;;;;;220670;1267;25399;-54
2022/07/10 08:51:12;;;;;;;2.70;1.50;;;24.10;51.10;;;;;;220615;1268;22626;-54
2022/07/10 08:56:28;;;;;;;3.50;1.40;;;24.10;50.80;;;;;;220408;1267;22553;-55
2022/07/10 09:01:32;;;;;;;1.90;1.10;;;24.10;50.70;;;;;;220282;1267;22635;-52
2022/07/10 09:06:55;;;;;;;3.20;1.40;;;24.10;50.70;;;;;;220556;1267;22520;-54
2022/07/10 09:12:16;;;;;;;2.60;1.30;;;24.10;50.70;;;;;;220403;1267;22633;-51
2022/07/10 09:17:29;;;;;;;2.50;1.30;;;24.10;50.70;;;;;;220988;1267;24215;-50
2022/07/10 09:22:35;;;;;;;2.90;1.20;;;24.20;50.80;;;;;;220649;1267;22532;-51
2022/07/10 09:27:59;;;;;;;4.90;1.30;;;24.10;50.80;;;;;;220817;1267;22595;-54
2022/07/10 09:33:25;;;;;;;2.20;1.20;;;24.10;50.80;;;;;;220578;1267;22651;-53
2022/07/10 09:38:43;;;;;;;2.40;1.10;;;24.20;50.80;;;;;;220271;1267;22528;-53
2022/07/10 09:44:04;;;;;;;2.50;1.10;;;24.10;50.80;;;;;;220123;1267;24307;-51
2022/07/10 09:49:12;;;;;;;4.00;1.20;;;24.20;50.80;;;;;;220707;1267;25239;-53
2022/07/10 09:54:21;;;;;;;2.30;1.00;;;24.10;50.80;;;;;;220749;1267;22532;-53
2022/07/10 09:59:27;;;;;;;3.20;1.30;;;24.20;50.80;;;;;;220444;1267;24249;-53
2022/07/10 10:04:34;;;;;;;2.50;1.20;;;24.20;50.70;;;;;;220709;1267;22692;-54
2022/07/10 10:09:57;;;;;;;2.40;1.30;;;24.10;50.60;;;;;;220247;1267;22553;-52
2022/07/10 10:15:02;;;;;;;2.70;1.10;;;24.10;50.50;;;;;;220300;1267;25232;-54
2022/07/10 10:25:40;;;;;;;3.40;1.50;;;24.20;50.40;;;;;;220987;1267;26597;-54
2022/07/10 10:30:49;;;;;;;2.50;1.10;;;24.20;50.40;;;;;;220555;1267;22554;-56
2022/07/10 10:36:07;;;;;;;2.90;1.10;;;24.20;50.30;;;;;;220514;1267;22692;-50
2022/07/10 10:41:28;;;;;;;3.80;1.30;;;24.20;50.20;;;;;;220679;1267;25245;-53
2022/07/10 10:46:54;;;;;;;3.60;1.30;;;24.20;50.20;;;;;;220802;1267;22549;-57
2022/07/10 10:52:15;;;;;;;1.90;0.90;;;24.20;50.20;;;;;;220662;1267;25126;-54
2022/07/10 10:57:22;;;;;;;1.30;0.90;;;24.20;50.10;;;;;;220677;1267;25306;-53
2022/07/10 11:02:27;;;;;;;2.30;1.00;;;24.30;50.10;;;;;;220349;1270;23935;-54
2022/07/10 11:08:10;;;;;;;2.60;1.10;;;24.30;50.20;;;;;;220564;1267;22694;-55
2022/07/10 11:13:19;;;;;;;2.80;1.10;;;24.30;49.90;;;;;;220538;1270;22536;-54
2022/07/10 11:18:31;;;;;;;3.20;1.10;;;24.30;49.90;;;;;;220317;1267;22551;-54
2022/07/10 11:24:00;;;;;;;2.30;0.90;;;24.30;49.90;;;;;;220756;1267;24367;-55
2022/07/10 11:29:06;;;;;;;2.00;0.90;;;24.30;49.80;;;;;;220256;1268;25446;-50
2022/07/10 11:34:10;;;;;;;3.10;1.10;;;24.30;49.70;;;;;;220313;1268;24263;-53
2022/07/10 11:39:16;;;;;;;2.60;1.20;;;24.30;49.50;;;;;;220187;1268;22771;-53
2022/07/10 11:44:35;;;;;;;1.60;0.80;;;24.30;49.70;;;;;;220721;1267;22704;-50
2022/07/10 11:50:16;;;;;;;1.90;0.90;;;24.30;49.20;;;;;;220918;1267;25115;-53
2022/07/10 11:55:23;;;;;;;3.80;1.10;;;24.30;49.20;;;;;;220457;1268;24232;-52
2022/07/10 12:00:29;;;;;;;2.50;1.40;;;24.30;48.90;;;;;;220474;1268;22560;-50
2022/07/10 12:05:36;;;;;;;2.10;1.10;;;24.30;49.20;;;;;;220663;1267;24258;-53
2022/07/10 12:10:43;;;;;;;3.00;1.00;;;24.20;49.10;;;;;;220914;1267;22521;-55
2022/07/10 12:15:46;;;;;;;1.50;0.80;;;24.30;49.10;;;;;;220509;1267;25233;-53
2022/07/10 12:20:52;;;;;;;2.20;1.00;;;24.30;49.00;;;;;;220761;1267;22531;-49
2022/07/10 12:26:01;;;;;;;2.30;1.10;;;24.30;49.10;;;;;;220856;1267;24273;-54
2022/07/10 12:31:21;;;;;;;2.20;1.00;;;24.40;49.10;;;;;;220737;1267;24272;-54
2022/07/10 12:36:26;;;;;;;3.30;1.10;;;24.30;49.00;;;;;;220190;1270;25236;-53
2022/07/10 12:41:30;;;;;;;2.20;0.90;;;24.30;49.10;;;;;;220650;1266;22540;-52
2022/07/10 12:46:35;;;;;;;3.40;1.00;;;24.30;49.10;;;;;;220524;1267;22686;-51
2022/07/10 12:51:47;;;;;;;2.20;0.90;;;24.30;49.00;;;;;;220443;1267;22604;-53
2022/07/10 12:57:11;;;;;;;2.20;0.90;;;24.30;49.00;;;;;;220343;1267;24244;-51
2022/07/10 13:02:21;;;;;;;1.30;0.80;;;24.30;49.10;;;;;;220137;1267;22557;-54
2022/07/10 13:07:32;;;;;;;;;;;24.30;49.00;;;;;;220549;1269;22507;-52
2022/07/10 13:12:41;;;;;;;1.80;1.10;;;24.30;49.00;;;;;;220603;1267;23194;-53
2022/07/10 13:17:45;;;;;;;2.30;0.90;;;24.30;48.90;;;;;;220188;1270;22684;-54
2022/07/10 13:22:49;;;;;;;1.50;0.70;;;24.30;49.00;;;;;;220641;1267;25238;-53
2022/07/10 13:27:59;;;;;;;3.00;1.10;;;24.30;49.30;;;;;;220343;1270;22550;-54
2022/07/10 13:33:09;;;;;;;1.70;0.90;;;24.30;49.60;;;;;;220528;1267;337400;-55
2022/07/10 13:38:20;;;;;;;2.30;1.20;;;24.30;49.10;;;;;;220646;1268;22539;-49
2022/07/10 13:43:28;;;;;;;2.00;1.20;;;24.30;49.10;;;;;;220631;1270;25212;-51
2022/07/10 13:48:36;;;;;;;2.40;0.90;;;24.30;49.20;;;;;;220662;1267;25431;-54
2022/07/10 13:53:43;;;;;;;2.00;0.90;;;24.30;49.20;;;;;;220581;1267;25795;-51
2022/07/10 13:58:52;;;;;;;2.20;1.00;;;24.30;49.30;;;;;;220356;1270;23037;-52
2022/07/10 14:03:56;;;;;;;1.80;0.80;;;24.30;49.20;;;;;;220488;1267;22551;-51
2022/07/10 14:08:59;;;;;;;2.30;1.10;;;24.40;49.30;;;;;;220079;1270;22721;-55
2022/07/10 14:14:03;;;;;;;2.60;0.90;;;24.30;49.50;;;;;;220477;1267;22545;-49
2022/07/10 14:19:07;;;;;;;1.90;1.00;;;24.40;49.30;;;;;;220089;1270;25242;-49
2022/07/10 14:24:14;;;;;;;1.80;0.90;;;24.30;49.20;;;;;;220128;1270;22557;-55
2022/07/10 14:29:18;;;;;;;1.90;1.00;;;24.30;49.30;;;;;;220385;1270;22553;-51
2022/07/10 14:34:24;;;;;;;2.20;1.00;;;24.30;49.20;;;;;;220223;1268;22572;-49
2022/07/10 14:39:28;;;;;;;1.80;1.00;;;24.30;49.20;;;;;;220190;1270;22710;-55
2022/07/10 14:44:35;;;;;;;2.50;1.10;;;24.30;49.10;;;;;;220435;1270;24304;-52
2022/07/10 14:49:39;;;;;;;2.00;0.80;;;24.30;48.80;;;;;;220525;1270;22554;-52
2022/07/10 14:54:42;;;;;;;1.60;0.90;;;24.30;48.80;;;;;;220405;1270;22728;-54
2022/07/10 14:59:46;;;;;;;2.20;0.90;;;24.30;49.10;;;;;;220368;1270;25593;-52
2022/07/10 15:04:53;;;;;;;1.70;1.10;;;24.40;48.70;;;;;;220697;1268;22545;-53
2022/07/10 15:09:58;;;;;;;2.10;1.10;;;24.40;48.70;;;;;;220508;1268;23029;-50
2022/07/10 15:15:06;;;;;;;2.70;1.00;;;24.30;48.70;;;;;;220373;1270;22541;-50
2022/07/10 15:20:11;;;;;;;2.60;1.00;;;24.30;48.70;;;;;;220591;1270;22549;-52
2022/07/10 15:25:14;;;;;;;2.20;1.00;;;24.30;48.80;;;;;;220868;1267;22857;-52
2022/07/10 15:30:19;;;;;;;2.50;1.00;;;24.30;48.80;;;;;;220677;1267;22532;-51
2022/07/10 15:35:23;;;;;;;2.80;1.10;;;24.30;48.80;;;;;;220632;1267;25242;-54
2022/07/10 15:40:34;;;;;;;4.30;1.00;;;24.30;48.80;;;;;;220658;1267;22577;-52
2022/07/10 15:45:45;;;;;;;8.50;1.50;;;24.30;49.50;;;;;;220427;1267;22623;-53
2022/07/10 15:50:52;;;;;;;17.60;1.80;;;24.40;49.80;;;;;;220411;1267;24329;-49
2022/07/10 15:55:55;;;;;;;7.60;1.30;;;24.40;49.70;;;;;;220796;1267;26710;-52
2022/07/10 16:00:59;;;;;;;7.00;1.30;;;24.50;50.10;;;;;;220400;1270;26566;-51
2022/07/10 16:06:03;;;;;;;6.20;1.50;;;24.40;49.60;;;;;;220542;1270;22528;-51
2022/07/10 16:11:10;;;;;;;8.00;1.40;;;24.40;49.80;;;;;;220799;1270;25225;-53
2022/07/10 16:16:15;;;;;;;10.30;1.90;;;24.30;49.60;;;;;;220294;1270;22551;-52
2022/07/10 16:21:19;;;;;;;5.20;1.20;;;24.30;49.60;;;;;;220430;1267;25362;-49
2022/07/10 16:26:24;;;;;;;7.20;1.10;;;24.30;49.90;;;;;;220555;1270;22574;-51
2022/07/10 16:31:27;;;;;;;3.80;1.30;;;24.30;49.60;;;;;;220752;1267;24368;-50
2022/07/10 16:36:31;;;;;;;4.80;1.40;;;24.30;49.50;;;;;;220505;1270;25499;-53
2022/07/10 16:41:36;;;;;;;3.30;1.40;;;24.30;49.50;;;;;;220597;1270;25722;-52
2022/07/10 16:46:39;;;;;;;4.40;1.20;;;24.30;49.60;;;;;;220839;1267;25245;-53
2022/07/10 16:51:43;;;;;;;6.20;1.30;;;24.30;49.50;;;;;;220576;1267;25376;-51
2022/07/10 16:56:47;;;;;;;2.40;1.10;;;24.30;49.80;;;;;;220286;1270;22683;-52
2022/07/10 17:01:51;;;;;;;2.00;1.00;;;24.30;49.70;;;;;;220437;1270;22534;-50
2022/07/10 17:06:55;;;;;;;3.70;1.10;;;24.30;49.30;;;;;;220389;1267;22620;-55
2022/07/10 17:11:59;;;;;;;3.40;1.30;;;24.30;49.30;;;;;;220644;1270;25658;-52
2022/07/10 17:17:05;;;;;;;3.70;1.30;;;24.30;49.30;;;;;;220492;1269;26762;-54
2022/07/10 17:22:12;;;;;;;5.00;1.50;;;24.20;49.00;;;;;;220634;1267;22723;-55
2022/07/10 17:27:16;;;;;;;3.40;0.90;;;24.20;49.20;;;;;;220529;1270;25819;-51
2022/07/10 17:32:20;;;;;;;3.10;1.00;;;24.20;49.40;;;;;;220884;1267;22523;-51
2022/07/10 17:37:30;;;;;;;2.30;0.90;;;24.20;49.10;;;;;;220338;1270;24286;-51
2022/07/10 17:42:35;;;;;;;5.10;1.20;;;24.20;49.00;;;;;;220575;1270;22530;-51
2022/07/10 17:47:40;;;;;;;2.20;1.20;;;24.20;49.00;;;;;;220431;1267;24251;-53
2022/07/10 17:52:48;;;;;;;4.20;1.10;;;24.20;49.10;;;;;;220463;1268;24274;-54
2022/07/10 17:57:59;;;;;;;4.20;1.20;;;24.20;49.10;;;;;;220211;1270;24327;-53
2022/07/10 18:03:05;;;;;;;3.50;1.10;;;24.20;49.50;;;;;;220644;1270;22704;-53
2022/07/10 18:08:14;;;;;;;2.20;1.10;;;24.20;49.20;;;;;;220727;1267;24552;-52
2022/07/10 18:13:24;;;;;;;2.20;0.90;;;24.20;49.20;;;;;;220589;1270;22728;-49
2022/07/10 18:18:30;;;;;;;;;;;24.10;49.30;;;;;;220335;1268;24305;-53
2022/07/10 18:23:35;;;;;;;4.60;1.20;;;24.10;49.90;;;;;;220751;1268;24465;-49
2022/07/10 18:28:40;;;;;;;2.30;1.30;;;24.10;49.40;;;;;;220618;1268;22531;-53
2022/07/10 18:39:09;;;;;;;2.00;1.00;;;24.10;49.60;;;;;;220878;1270;25651;-49
2022/07/10 18:44:23;;;;;;;2.30;1.00;;;24.10;50.00;;;;;;220877;1268;24398;-53
2022/07/10 18:49:38;;;;;;;3.10;1.20;;;24.10;49.70;;;;;;220752;1268;22617;-53
2022/07/10 18:54:41;;;;;;;2.50;1.10;;;24.10;49.70;;;;;;220743;1268;22550;-49
2022/07/10 18:59:45;;;;;;;3.10;1.20;;;24.10;49.70;;;;;;220520;1270;24063;-51
2022/07/10 19:04:49;;;;;;;3.00;1.50;;;24.00;50.10;;;;;;220578;1269;22570;-50
2022/07/10 19:09:56;;;;;;;2.30;1.10;;;24.00;49.80;;;;;;220615;1270;22540;-51
2022/07/10 19:15:00;;;;;;;2.50;1.10;;;24.10;49.90;;;;;;220613;1270;22532;-55
2022/07/10 19:20:27;;;;;;;;;;;;;;;;;;;;;
2022/07/10 19:26:15;;;;;;;2.90;0.90;;;24.00;49.90;;;;;;220753;1268;25244;-51
2022/07/10 19:31:22;;;;;;;2.70;1.00;;;24.00;49.90;;;;;;220066;1270;22519;-53
2022/07/10 19:36:48;;;;;;;2.80;1.10;;;24.00;50.00;;;;;;220367;1268;22550;-53
2022/07/10 19:42:16;;;;;;;2.60;1.10;;;24.00;50.00;;;;;;220081;1271;24220;-53
2022/07/10 19:48:03;;;;;;;2.60;1.00;;;24.00;50.00;;;;;;220302;1271;24283;-49
2022/07/10 19:53:11;;;;;;;1.60;0.90;;;24.00;50.10;;;;;;220759;1269;22595;-57
2022/07/10 19:58:24;;;;;;;2.70;1.10;;;24.00;49.90;;;;;;220126;1271;22688;-54
2022/07/10 20:03:30;;;;;;;2.10;1.00;;;23.90;50.10;;;;;;220363;1268;23167;-52
2022/07/10 20:08:51;;;;;;;2.10;1.30;;;23.90;50.10;;;;;;220344;1268;24313;-54
2022/07/10 20:14:01;;;;;;;1.80;0.90;;;23.90;50.10;;;;;;220396;1268;25311;-52
2022/07/10 20:19:10;;;;;;;2.20;0.90;;;23.90;50.50;;;;;;220510;1268;24423;-54
2022/07/10 20:24:17;;;;;;;3.20;1.00;;;23.90;50.30;;;;;;220352;1268;25393;-50
2022/07/10 20:29:21;;;;;;;2.90;1.10;;;23.90;49.90;;;;;;220637;1268;22703;-56
2022/07/10 20:34:25;;;;;;;3.20;1.00;;;23.90;50.40;;;;;;220532;1268;25481;-54
2022/07/10 20:39:29;;;;;;;2.00;1.00;;;23.90;50.40;;;;;;220674;1268;23922;-53
2022/07/10 20:44:40;;;;;;;2.30;1.10;;;23.90;50.80;;;;;;220303;1268;24250;-52
2022/07/10 20:49:43;;;;;;;2.60;1.20;;;23.90;50.50;;;;;;220768;1268;22573;-52
2022/07/10 20:54:48;;;;;;;2.20;1.00;;;23.90;50.50;;;;;;220431;1268;23066;-54
2022/07/10 20:59:51;;;;;;;2.80;1.10;;;23.90;50.60;;;;;;220573;1268;22554;-50
2022/07/10 21:04:55;;;;;;;1.90;0.90;;;23.90;50.70;;;;;;220625;1268;22560;-49
2022/07/10 21:09:59;;;;;;;1.60;0.90;;;23.90;50.70;;;;;;220631;1268;22537;-52
2022/07/10 21:15:04;;;;;;;4.00;1.60;;;23.80;50.80;;;;;;220613;1268;22624;-52
2022/07/10 21:20:15;;;;;;;2.00;0.90;;;23.80;50.90;;;;;;220444;1268;22564;-54
2022/07/10 21:25:21;;;;;;;5.20;1.10;;;23.80;50.90;;;;;;220334;1269;24254;-53
2022/07/10 21:30:26;;;;;;;1.70;0.90;;;23.80;50.90;;;;;;220721;1267;22703;-54
2022/07/10 21:35:33;;;;;;;2.30;1.00;;;23.80;51.00;;;;;;220847;1267;24213;-52
2022/07/10 21:40:38;;;;;;;2.50;1.10;;;23.80;51.00;;;;;;220673;1269;22545;-53
2022/07/10 21:45:45;;;;;;;2.00;0.90;;;23.80;51.20;;;;;;220613;1267;24344;-50
2022/07/10 21:50:59;;;;;;;2.50;1.20;;;23.80;51.10;;;;;;220090;1270;25449;-53
2022/07/10 21:56:06;;;;;;;1.70;1.00;;;23.80;51.20;;;;;;220337;1268;22544;-49
2022/07/10 22:01:12;;;;;;;2.00;1.00;;;23.80;51.30;;;;;;220109;1268;25450;-52
2022/07/10 22:06:17;;;;;;;2.80;1.00;;;23.70;51.00;;;;;;220409;1267;24366;-50
2022/07/10 22:11:24;;;;;;;1.90;0.90;;;23.80;51.30;;;;;;220133;1270;23925;-51
2022/07/10 22:16:38;;;;;;;1.90;1.00;;;23.70;51.60;;;;;;220473;1267;22578;-52
2022/07/10 22:21:44;;;;;;;1.60;1.10;;;23.70;51.40;;;;;;220753;1267;22679;-53
2022/07/10 22:26:48;;;;;;;1.80;1.00;;;23.70;51.50;;;;;;220494;1268;22762;-51
2022/07/10 22:31:54;;;;;;;1.70;1.00;;;23.70;51.50;;;;;;220532;1267;25366;-53
2022/07/10 22:36:59;;;;;;;1.90;0.90;;;23.70;51.50;;;;;;220388;1267;25529;-56
2022/07/10 22:42:03;;;;;;;2.30;1.20;;;23.70;51.60;;;;;;220669;1267;26727;-52
2022/07/10 22:47:08;;;;;;;1.60;0.80;;;23.60;51.20;;;;;;220319;1268;22629;-54
2022/07/10 22:52:12;;;;;;;2.00;1.00;;;23.60;51.70;;;;;;220733;1267;23424;-52
2022/07/10 22:57:23;;;;;;;3.00;1.00;;;23.60;51.70;;;;;;220712;1268;24290;-51
2022/07/10 23:02:33;;;;;;;1.70;1.00;;;23.60;51.70;;;;;;220558;1267;24324;-51
2022/07/10 23:07:39;;;;;;;2.50;1.00;;;23.60;51.70;;;;;;220657;1268;22537;-52
2022/07/10 23:12:45;;;;;;;4.50;1.10;;;23.60;51.80;;;;;;220573;1267;25639;-53
2022/07/10 23:17:52;;;;;;;2.20;1.10;;;23.60;51.80;;;;;;220826;1267;22704;-50
2022/07/10 23:23:00;;;;;;;2.10;1.00;;;23.60;51.90;;;;;;220363;1268;22615;-53
2022/07/10 23:28:10;;;;;;;2.20;1.00;;;23.60;52.20;;;;;;220395;1268;22531;-53
2022/07/10 23:33:20;;;;;;;2.00;1.00;;;23.60;51.90;;;;;;220354;1268;24293;-53
2022/07/10 23:38:27;;;;;;;1.80;1.10;;;23.60;52.00;;;;;;220646;1267;25296;-54
2022/07/10 23:43:31;;;;;;;2.00;0.90;;;23.60;51.70;;;;;;220774;1267;24292;-52
2022/07/10 23:53:57;;;;;;;3.70;1.00;;;23.50;52.10;;;;;;220363;1267;22604;-52
2022/07/10 23:59:04;;;;;;;2.40;1.00;;;23.50;52.30;;;;;;220317;1267;22612;-52
